Accueil
METAR-TAF:

METAR-TAF

Aéroports :

Aéroport international de Curaçao

Curaçao, Antilles néerlandaises

latitude: 12-12N, longitude: 068-58W, altitude: 9 m

Observation

Le bulletin a été fait il y a 25 minutes, à 15:00 UTC
Vent 12 kt de est, variant entre est/nord-est et est/sud-est
Température 31°C
Humidité 63%
Pression 1016 hPa
Visibilité 10 km ou plus
Quelques nuages à une hauteur de 2400 ft

METAR: TNCC 161500Z 09012KT 060V120 9999 FEW024 31/23 Q1016 NOSIG

Heure: 11:25 (15:25 UTC)

Prévision

Le bulletin a été fait il y a 5 heures et 55 minutes, à 09:30 UTC
Prévision valable du 16 à 12 UTC au 17 à 12 UTC
Vent 13 kt de est/sud-est
Visibilité 10 km ou plus
Nuages épars à une hauteur de 2200 ft

TAF: TNCC 160930Z 1612/1712 11013KT 9999 SCT022

Observations et prévisions météorologiques de plus de 4000 aéroports (messages METAR et TAF).

Les stations disponibles sont représentées par des disques jaunes et rouges sur la carte.

Passer la souris dessus pour voir le nom de la station.

Cliquer dessus pour voir les observations et prévisions météorologiques.

Pour changer de carte: cliquez sur les boutons verts avec une croix noire pour zoomer, sur le bouton vert avec un tiret pour effectuer un zoom arrière, ou sur les flèches vertes pour les cartes adjacentes.


METAR-TAF: